Meteo Giornale » Osservazioni meteo Stati Uniti (USA) » Clearfield-Lawrence
ore: 01:54 - Osservazioni Meteo Clearfield-Lawrence
Lat. 41° 2' N Lon. 78° 24' W Alt. 462 metri s.l.m.
21 °C
Nuvoloso
Temp. 24 Ore
17 °C
27 °C
Sud/Sud-Ovest
7.4 Km/h
Dew point 20 °C
Umidità 94 %
Visibilità 11 Km
Il sole sorge alle ore 06:40
Il sole tramonta alle ore 19:46
| Data e Ora | Cielo e Fenomeni | T °C | DP °C | Um. % | Pres. hPa | Vis. km | Vento km/h | |
|---|---|---|---|---|---|---|---|---|
| Oggi h: 01:54 | Nuvoloso | 21 | 20 | 94 | 1019 | 11 | S/SO 7.4 | |
| Oggi h: 01:20 | Foschia | 20 | 20 | 100 | 1019 | 6 | N 0 | |
| Oggi h: 01:09 | Foschia | 20 | 19 | 93 | 1019 | 2 | N 0 | |
| Oggi h: 00:54 | Foschia | 21 | 21 | 100 | 1018 | 6 | N 5.5 | |
| Ieri h: 23:54 | Sereno | 21 | 21 | 100 | 1019 | 11 | N 0 | |
| Ieri h: 22:54 | Poco Nuvoloso | 22 | 21 | 94 | 1019 | 10 | N 5.5 | |
| Ieri h: 21:54 | Coperto | 22 | 21 | 94 | 1019 | 10 | N 0 | |
| Ieri h: 20:54 | Molto Nuvoloso | 23 | 21 | 88 | 1019 | 10 | N 5.5 | |
| Ieri h: 19:54 | Molto Nuvoloso | 23 | 22 | 94 | 1019 | 10 | N 0 | |
| Ieri h: 18:54 | Coperto | 24 | 21 | 83 | 1018 | 10 | N 0 | |
| Ieri h: 17:54 | Coperto | 26 | 20 | 69 | 1019 | 10 | N 0 | |
| Ieri h: 16:54 | Coperto | 27 | 19 | 61 | 1019 | 10 | O 14.8 | |
| Ieri h: 15:54 | Coperto | 27 | 21 | 69 | 1019 | 10 | N 0 | |
| Ieri h: 14:54 | Sereno | 27 | 21 | 69 | 1020 | 10 | SO 11.1 | |
| Ieri h: 13:54 | Poco Nuvoloso | 24 | 20 | 78 | 1020 | 10 | N 0 | |
| Ieri h: 12:54 | Poco Nuvoloso | 22 | 19 | 83 | 1021 | 10 | N 5.5 | |
| Ieri h: 11:54 | Coperto | 21 | 18 | 82 | 1021 | 10 | N 0 | |
| Ieri h: 10:54 | Coperto | 19 | 18 | 93 | 1022 | 10 | N 5.5 | |
| Ieri h: 10:06 | Coperto | 19 | 18 | 93 | 1021 | 10 | N 0 | |
| Ieri h: 09:54 | Coperto | 19 | 18 | 93 | 1021 | 11 | N 5.5 | |
| Ieri h: 09:22 | Foschia | 18 | 18 | 100 | 1021 | 8 | N 5.5 | |
| Ieri h: 09:01 | Foschia | 18 | 18 | 100 | 1021 | 10 | N 0 | |
| Ieri h: 08:54 | Pioggia Foschia | 18 | 18 | 100 | 1022 | 8 | N 0 | |
| Ieri h: 08:34 | Pioggia Foschia | 17 | 17 | 100 | 1021 | 5 | N 0 | |
| Ieri h: 08:28 | Pioggia Foschia | 17 | 17 | 100 | 1021 | 2 | N 0 | |
| Ieri h: 08:16 | Pioggia Nebbia | 17 | 17 | 100 | 1022 | 2 | N 0 | |
| Ieri h: 08:10 | Pioggia Foschia | 18 | 17 | 93 | 1022 | 2 | N 11.1 | |
| Ieri h: 07:51 | Pioggia Foschia | 17 | 17 | 100 | 1021 | 5 | N 0 | |
| Ieri h: 07:50 | Pioggia Foschia | 17 | 17 | 100 | 1021 | 5 | N 0 | |
| Ieri h: 07:43 | Pioggia Foschia | 17 | 17 | 100 | 1022 | 2 | N 0 | |
| Ieri h: 07:28 | Pioggia Nebbia | 17 | 17 | 100 | 1021 | 2 | N 5.5 | |
| Ieri h: 07:04 | Foschia | 17 | 17 | 100 | 1021 | 5 | N 0 | |
| Ieri h: 06:54 | Pioggia Foschia | 17 | 17 | 100 | 1021 | 10 | N 0 | |
| Ieri h: 05:54 | Pioggia | 17 | 17 | 100 | 1021 | 10 | N 5.5 | |
| Ieri h: 05:42 | Pioggia Foschia | 17 | 17 | 100 | 1021 | 6 | N 0 | |
| Ieri h: 05:39 | Pioggia Foschia | 17 | 17 | 100 | 1021 | 2 | N 5.5 | |
| Ieri h: 05:27 | Nebbia | 17 | 17 | 100 | 1020 | 2 | N 0 | |
| Ieri h: 05:22 | Foschia | 17 | 17 | 100 | 1021 | 2 | N 9.3 | |
| Ieri h: 04:54 | Pioggia | 17 | 17 | 100 | 1021 | 13 | N 0 | |
| Ieri h: 03:54 | Coperto | 18 | 17 | 93 | 1021 | 10 | N 5.5 | |
| Ieri h: 02:54 | Pioggia | 18 | 17 | 93 | 1021 | 10 | N/NO 7.4 | |



